sensor_id;sensor_type;location;lat;lon;timestamp;temperature;humidity
17307;DHT22;8771;48.048;7.682;2022-08-07T00:01:53;20.40;48.90
17307;DHT22;8771;48.048;7.682;2022-08-07T00:06:56;20.40;48.90
17307;DHT22;8771;48.048;7.682;2022-08-07T00:11:58;20.30;48.90
17307;DHT22;8771;48.048;7.682;2022-08-07T00:17:01;20.30;48.90
17307;DHT22;8771;48.048;7.682;2022-08-07T00:22:05;20.30;48.90
17307;DHT22;8771;48.048;7.682;2022-08-07T00:27:07;20.20;48.80
17307;DHT22;8771;48.048;7.682;2022-08-07T00:32:09;20.20;48.80
17307;DHT22;8771;48.048;7.682;2022-08-07T00:37:14;20.20;48.80
17307;DHT22;8771;48.048;7.682;2022-08-07T00:42:16;20.20;48.80
17307;DHT22;8771;48.048;7.682;2022-08-07T00:47:18;20.20;48.90
17307;DHT22;8771;48.048;7.682;2022-08-07T00:52:22;20.10;48.90
17307;DHT22;8771;48.048;7.682;2022-08-07T00:57:26;20.10;49.50
17307;DHT22;8771;48.048;7.682;2022-08-07T01:02:28;20.00;48.80
17307;DHT22;8771;48.048;7.682;2022-08-07T01:07:31;20.00;48.90
17307;DHT22;8771;48.048;7.682;2022-08-07T01:12:34;20.00;48.90
17307;DHT22;8771;48.048;7.682;2022-08-07T01:17:36;19.90;48.90
17307;DHT22;8771;48.048;7.682;2022-08-07T01:22:40;19.80;49.60
17307;DHT22;8771;48.048;7.682;2022-08-07T01:27:42;19.70;49.10
17307;DHT22;8771;48.048;7.682;2022-08-07T01:32:44;19.60;49.20
17307;DHT22;8771;48.048;7.682;2022-08-07T01:37:48;19.50;49.20
17307;DHT22;8771;48.048;7.682;2022-08-07T01:42:50;19.40;49.20
17307;DHT22;8771;48.048;7.682;2022-08-07T01:47:52;19.40;49.30
17307;DHT22;8771;48.048;7.682;2022-08-07T01:52:57;19.30;49.40
17307;DHT22;8771;48.048;7.682;2022-08-07T01:58:01;19.20;49.40
17307;DHT22;8771;48.048;7.682;2022-08-07T02:03:11;19.10;49.50
17307;DHT22;8771;48.048;7.682;2022-08-07T02:08:18;19.00;49.50
17307;DHT22;8771;48.048;7.682;2022-08-07T02:13:22;19.00;49.50
17307;DHT22;8771;48.048;7.682;2022-08-07T02:18:26;18.90;49.60
17307;DHT22;8771;48.048;7.682;2022-08-07T02:23:31;18.80;49.70
17307;DHT22;8771;48.048;7.682;2022-08-07T02:28:35;18.70;49.80
17307;DHT22;8771;48.048;7.682;2022-08-07T02:33:38;18.60;49.90
17307;DHT22;8771;48.048;7.682;2022-08-07T02:38:43;18.40;49.90
17307;DHT22;8771;48.048;7.682;2022-08-07T02:43:45;18.30;49.90
17307;DHT22;8771;48.048;7.682;2022-08-07T02:48:48;18.20;49.40
17307;DHT22;8771;48.048;7.682;2022-08-07T02:53:52;18.20;50.00
17307;DHT22;8771;48.048;7.682;2022-08-07T02:59:00;18.10;50.00
17307;DHT22;8771;48.048;7.682;2022-08-07T03:04:03;18.00;50.10
17307;DHT22;8771;48.048;7.682;2022-08-07T03:09:08;17.90;50.10
17307;DHT22;8771;48.048;7.682;2022-08-07T03:14:10;17.80;50.20
17307;DHT22;8771;48.048;7.682;2022-08-07T03:19:13;17.70;50.20
17307;DHT22;8771;48.048;7.682;2022-08-07T03:24:16;17.70;50.20
17307;DHT22;8771;48.048;7.682;2022-08-07T03:29:19;17.60;50.20
17307;DHT22;8771;48.048;7.682;2022-08-07T03:34:23;17.50;50.30
17307;DHT22;8771;48.048;7.682;2022-08-07T03:39:28;17.50;50.30
17307;DHT22;8771;48.048;7.682;2022-08-07T03:44:33;17.50;50.20
17307;DHT22;8771;48.048;7.682;2022-08-07T03:49:36;17.50;50.20
17307;DHT22;8771;48.048;7.682;2022-08-07T03:54:40;17.50;50.20
17307;DHT22;8771;48.048;7.682;2022-08-07T03:59:42;17.40;50.20
17307;DHT22;8771;48.048;7.682;2022-08-07T04:04:45;17.40;50.30
17307;DHT22;8771;48.048;7.682;2022-08-07T04:09:49;17.40;50.30
17307;DHT22;8771;48.048;7.682;2022-08-07T04:14:52;17.30;50.30
17307;DHT22;8771;48.048;7.682;2022-08-07T04:19:54;17.20;50.40
17307;DHT22;8771;48.048;7.682;2022-08-07T04:25:00;17.20;50.40
17307;DHT22;8771;48.048;7.682;2022-08-07T04:30:03;17.10;50.40
17307;DHT22;8771;48.048;7.682;2022-08-07T04:35:06;17.10;50.40
17307;DHT22;8771;48.048;7.682;2022-08-07T04:40:11;17.10;50.50
17307;DHT22;8771;48.048;7.682;2022-08-07T04:45:13;17.10;50.50
17307;DHT22;8771;48.048;7.682;2022-08-07T04:50:21;17.10;50.50
17307;DHT22;8771;48.048;7.682;2022-08-07T04:55:31;17.10;50.50
17307;DHT22;8771;48.048;7.682;2022-08-07T05:00:39;17.00;50.50
17307;DHT22;8771;48.048;7.682;2022-08-07T05:05:51;17.00;50.50
17307;DHT22;8771;48.048;7.682;2022-08-07T05:11:00;17.10;50.50
17307;DHT22;8771;48.048;7.682;2022-08-07T05:16:08;17.10;50.40
17307;DHT22;8771;48.048;7.682;2022-08-07T05:21:11;17.10;50.40
17307;DHT22;8771;48.048;7.682;2022-08-07T05:26:21;17.20;50.40
17307;DHT22;8771;48.048;7.682;2022-08-07T05:31:26;17.30;50.30
17307;DHT22;8771;48.048;7.682;2022-08-07T05:36:29;17.40;50.20
17307;DHT22;8771;48.048;7.682;2022-08-07T05:41:34;17.50;50.20
17307;DHT22;8771;48.048;7.682;2022-08-07T05:46:36;17.60;50.10
17307;DHT22;8771;48.048;7.682;2022-08-07T05:51:40;17.80;50.10
17307;DHT22;8771;48.048;7.682;2022-08-07T05:56:45;17.90;49.90
17307;DHT22;8771;48.048;7.682;2022-08-07T06:01:48;18.10;49.70
17307;DHT22;8771;48.048;7.682;2022-08-07T06:06:51;18.30;49.70
17307;DHT22;8771;48.048;7.682;2022-08-07T06:11:54;18.60;49.40
17307;DHT22;8771;48.048;7.682;2022-08-07T06:16:57;19.00;49.10
17307;DHT22;8771;48.048;7.682;2022-08-07T06:21:59;19.50;48.80
17307;DHT22;8771;48.048;7.682;2022-08-07T06:27:03;19.90;48.50
17307;DHT22;8771;48.048;7.682;2022-08-07T06:32:06;20.30;48.20
17307;DHT22;8771;48.048;7.682;2022-08-07T06:37:08;20.70;48.00
17307;DHT22;8771;48.048;7.682;2022-08-07T06:42:16;21.20;47.80
17307;DHT22;8771;48.048;7.682;2022-08-07T06:47:19;21.60;47.50
17307;DHT22;8771;48.048;7.682;2022-08-07T06:52:21;21.90;47.30
17307;DHT22;8771;48.048;7.682;2022-08-07T06:57:28;22.30;47.20
17307;DHT22;8771;48.048;7.682;2022-08-07T07:02:33;22.60;47.00
17307;DHT22;8771;48.048;7.682;2022-08-07T07:07:35;23.00;46.90
17307;DHT22;8771;48.048;7.682;2022-08-07T07:12:42;23.20;46.70
17307;DHT22;8771;48.048;7.682;2022-08-07T07:17:52;23.60;46.60
17307;DHT22;8771;48.048;7.682;2022-08-07T07:22:55;23.80;46.50
17307;DHT22;8771;48.048;7.682;2022-08-07T07:28:01;24.00;46.60
17307;DHT22;8771;48.048;7.682;2022-08-07T07:33:07;24.10;46.50
17307;DHT22;8771;48.048;7.682;2022-08-07T07:38:12;24.30;46.60
17307;DHT22;8771;48.048;7.682;2022-08-07T07:43:18;24.40;46.60
17307;DHT22;8771;48.048;7.682;2022-08-07T07:48:23;24.40;46.60
17307;DHT22;8771;48.048;7.682;2022-08-07T07:53:26;24.60;46.70
17307;DHT22;8771;48.048;7.682;2022-08-07T07:58:33;24.70;46.60
17307;DHT22;8771;48.048;7.682;2022-08-07T08:03:37;24.80;46.70
17307;DHT22;8771;48.048;7.682;2022-08-07T08:08:42;24.90;46.70
17307;DHT22;8771;48.048;7.682;2022-08-07T08:13:48;24.90;46.60
17307;DHT22;8771;48.048;7.682;2022-08-07T08:18:53;25.00;46.50
17307;DHT22;8771;48.048;7.682;2022-08-07T08:23:56;25.00;46.60
17307;DHT22;8771;48.048;7.682;2022-08-07T08:29:17;24.70;46.90
17307;DHT22;8771;48.048;7.682;2022-08-07T08:34:21;24.60;47.00
17307;DHT22;8771;48.048;7.682;2022-08-07T08:39:25;24.40;47.10
17307;DHT22;8771;48.048;7.682;2022-08-07T08:44:33;24.30;47.10
17307;DHT22;8771;48.048;7.682;2022-08-07T08:49:43;24.30;47.10
17307;DHT22;8771;48.048;7.682;2022-08-07T08:54:54;24.40;47.00
17307;DHT22;8771;48.048;7.682;2022-08-07T09:00:03;24.50;46.90
17307;DHT22;8771;48.048;7.682;2022-08-07T09:05:17;24.60;46.80
17307;DHT22;8771;48.048;7.682;2022-08-07T09:10:24;24.80;46.70
17307;DHT22;8771;48.048;7.682;2022-08-07T09:15:36;24.90;46.60
17307;DHT22;8771;48.048;7.682;2022-08-07T09:20:47;25.00;46.50
17307;DHT22;8771;48.048;7.682;2022-08-07T09:26:01;24.90;46.50
17307;DHT22;8771;48.048;7.682;2022-08-07T09:31:09;24.70;46.70
17307;DHT22;8771;48.048;7.682;2022-08-07T09:36:23;24.80;46.70
17307;DHT22;8771;48.048;7.682;2022-08-07T09:41:35;24.80;46.70
17307;DHT22;8771;48.048;7.682;2022-08-07T09:46:50;24.80;46.70
17307;DHT22;8771;48.048;7.682;2022-08-07T09:52:04;25.00;46.60
17307;DHT22;8771;48.048;7.682;2022-08-07T09:57:26;25.10;46.30
17307;DHT22;8771;48.048;7.682;2022-08-07T10:03:06;25.20;46.30
17307;DHT22;8771;48.048;7.682;2022-08-07T10:13:51;25.70;46.20
17307;DHT22;8771;48.048;7.682;2022-08-07T10:19:09;25.70;46.20
17307;DHT22;8771;48.048;7.682;2022-08-07T10:24:38;25.70;46.20
17307;DHT22;8771;48.048;7.682;2022-08-07T10:30:03;25.80;46.20
17307;DHT22;8771;48.048;7.682;2022-08-07T10:35:18;25.90;46.10
17307;DHT22;8771;48.048;7.682;2022-08-07T10:40:28;26.00;46.00
17307;DHT22;8771;48.048;7.682;2022-08-07T10:45:35;26.20;46.00
17307;DHT22;8771;48.048;7.682;2022-08-07T10:50:44;26.20;45.90
17307;DHT22;8771;48.048;7.682;2022-08-07T10:55:50;26.30;45.90
17307;DHT22;8771;48.048;7.682;2022-08-07T11:01:10;26.40;46.00
17307;DHT22;8771;48.048;7.682;2022-08-07T11:06:20;26.40;45.90
17307;DHT22;8771;48.048;7.682;2022-08-07T11:11:26;26.60;45.80
17307;DHT22;8771;48.048;7.682;2022-08-07T11:16:33;26.80;45.70
17307;DHT22;8771;48.048;7.682;2022-08-07T11:21:44;26.90;45.60
17307;DHT22;8771;48.048;7.682;2022-08-07T11:26:53;27.00;45.60
17307;DHT22;8771;48.048;7.682;2022-08-07T11:32:03;27.00;45.50
17307;DHT22;8771;48.048;7.682;2022-08-07T11:37:33;27.10;45.50
17307;DHT22;8771;48.048;7.682;2022-08-07T11:42:45;27.30;46.10
17307;DHT22;8771;48.048;7.682;2022-08-07T11:48:04;27.60;45.30
17307;DHT22;8771;48.048;7.682;2022-08-07T11:53:20;27.70;45.20
17307;DHT22;8771;48.048;7.682;2022-08-07T11:58:35;27.70;45.30
17307;DHT22;8771;48.048;7.682;2022-08-07T12:04:00;27.60;45.30
17307;DHT22;8771;48.048;7.682;2022-08-07T12:09:15;27.70;45.30
17307;DHT22;8771;48.048;7.682;2022-08-07T12:14:20;27.90;45.80
17307;DHT22;8771;48.048;7.682;2022-08-07T12:19:30;28.00;45.10
17307;DHT22;8771;48.048;7.682;2022-08-07T12:24:44;28.10;45.10
17307;DHT22;8771;48.048;7.682;2022-08-07T12:30:03;28.20;45.00
17307;DHT22;8771;48.048;7.682;2022-08-07T12:35:08;28.30;45.00
17307;DHT22;8771;48.048;7.682;2022-08-07T12:40:16;28.40;45.00
17307;DHT22;8771;48.048;7.682;2022-08-07T12:45:22;28.50;44.90
17307;DHT22;8771;48.048;7.682;2022-08-07T12:50:36;28.50;45.00
17307;DHT22;8771;48.048;7.682;2022-08-07T12:55:42;28.60;45.00
17307;DHT22;8771;48.048;7.682;2022-08-07T13:00:58;28.60;44.90
17307;DHT22;8771;48.048;7.682;2022-08-07T13:06:11;28.80;44.80
17307;DHT22;8771;48.048;7.682;2022-08-07T13:11:33;28.90;44.80
17307;DHT22;8771;48.048;7.682;2022-08-07T13:16:45;28.80;44.80
17307;DHT22;8771;48.048;7.682;2022-08-07T13:21:53;28.80;44.90
17307;DHT22;8771;48.048;7.682;2022-08-07T13:27:04;28.80;44.80
17307;DHT22;8771;48.048;7.682;2022-08-07T13:32:20;29.00;44.70
17307;DHT22;8771;48.048;7.682;2022-08-07T13:37:28;29.20;44.60
17307;DHT22;8771;48.048;7.682;2022-08-07T13:42:34;29.30;44.50
17307;DHT22;8771;48.048;7.682;2022-08-07T13:47:38;29.30;44.60
17307;DHT22;8771;48.048;7.682;2022-08-07T13:52:42;29.20;44.50
17307;DHT22;8771;48.048;7.682;2022-08-07T13:57:51;29.30;44.50
17307;DHT22;8771;48.048;7.682;2022-08-07T14:02:55;29.30;44.50
17307;DHT22;8771;48.048;7.682;2022-08-07T14:07:59;29.40;44.40
17307;DHT22;8771;48.048;7.682;2022-08-07T14:13:03;29.50;44.40
17307;DHT22;8771;48.048;7.682;2022-08-07T14:18:13;29.50;44.50
17307;DHT22;8771;48.048;7.682;2022-08-07T14:23:20;29.50;44.50
17307;DHT22;8771;48.048;7.682;2022-08-07T14:28:25;29.60;44.30
17307;DHT22;8771;48.048;7.682;2022-08-07T14:33:31;29.60;44.30
17307;DHT22;8771;48.048;7.682;2022-08-07T14:38:34;29.60;44.20
17307;DHT22;8771;48.048;7.682;2022-08-07T14:43:40;29.60;44.30
17307;DHT22;8771;48.048;7.682;2022-08-07T14:48:45;29.60;44.30
17307;DHT22;8771;48.048;7.682;2022-08-07T14:53:49;29.60;44.40
17307;DHT22;8771;48.048;7.682;2022-08-07T14:58:56;29.60;44.40
17307;DHT22;8771;48.048;7.682;2022-08-07T15:04:01;29.50;44.40
17307;DHT22;8771;48.048;7.682;2022-08-07T15:09:08;29.50;44.30
17307;DHT22;8771;48.048;7.682;2022-08-07T15:14:16;29.50;44.30
17307;DHT22;8771;48.048;7.682;2022-08-07T15:19:23;29.40;44.20
17307;DHT22;8771;48.048;7.682;2022-08-07T15:24:30;29.30;44.30
17307;DHT22;8771;48.048;7.682;2022-08-07T15:29:38;29.30;44.30
17307;DHT22;8771;48.048;7.682;2022-08-07T15:34:45;29.40;44.20
17307;DHT22;8771;48.048;7.682;2022-08-07T15:39:52;29.40;44.20
17307;DHT22;8771;48.048;7.682;2022-08-07T15:44:57;29.40;44.20
17307;DHT22;8771;48.048;7.682;2022-08-07T15:50:02;29.40;44.20
17307;DHT22;8771;48.048;7.682;2022-08-07T15:55:08;29.30;44.20
17307;DHT22;8771;48.048;7.682;2022-08-07T16:00:13;29.30;44.20
17307;DHT22;8771;48.048;7.682;2022-08-07T16:05:17;29.30;44.20
17307;DHT22;8771;48.048;7.682;2022-08-07T16:10:24;29.30;44.10
17307;DHT22;8771;48.048;7.682;2022-08-07T16:15:36;29.20;44.10
17307;DHT22;8771;48.048;7.682;2022-08-07T16:20:45;29.20;44.10
17307;DHT22;8771;48.048;7.682;2022-08-07T16:26:02;29.20;44.10
17307;DHT22;8771;48.048;7.682;2022-08-07T16:31:18;29.10;44.10
17307;DHT22;8771;48.048;7.682;2022-08-07T16:36:28;29.00;44.00
17307;DHT22;8771;48.048;7.682;2022-08-07T16:41:44;29.00;44.00
17307;DHT22;8771;48.048;7.682;2022-08-07T16:52:47;28.90;44.00
17307;DHT22;8771;48.048;7.682;2022-08-07T16:58:00;28.80;44.00
17307;DHT22;8771;48.048;7.682;2022-08-07T17:03:16;28.80;44.10
17307;DHT22;8771;48.048;7.682;2022-08-07T17:08:33;28.70;44.00
17307;DHT22;8771;48.048;7.682;2022-08-07T17:13:46;28.60;44.00
17307;DHT22;8771;48.048;7.682;2022-08-07T17:19:01;28.60;44.00
17307;DHT22;8771;48.048;7.682;2022-08-07T17:24:21;28.50;44.00
17307;DHT22;8771;48.048;7.682;2022-08-07T17:29:30;28.40;44.00
17307;DHT22;8771;48.048;7.682;2022-08-07T17:34:41;28.30;43.90
17307;DHT22;8771;48.048;7.682;2022-08-07T17:39:51;28.20;44.00
17307;DHT22;8771;48.048;7.682;2022-08-07T17:44:57;28.10;44.00
17307;DHT22;8771;48.048;7.682;2022-08-07T17:50:05;28.00;44.00
17307;DHT22;8771;48.048;7.682;2022-08-07T17:55:13;27.90;44.00
17307;DHT22;8771;48.048;7.682;2022-08-07T18:00:17;27.70;44.00
17307;DHT22;8771;48.048;7.682;2022-08-07T18:05:29;27.60;44.10
17307;DHT22;8771;48.048;7.682;2022-08-07T18:10:38;27.50;44.20
17307;DHT22;8771;48.048;7.682;2022-08-07T18:15:53;27.30;44.10
17307;DHT22;8771;48.048;7.682;2022-08-07T18:21:00;27.20;44.10
17307;DHT22;8771;48.048;7.682;2022-08-07T18:26:06;27.10;44.20
17307;DHT22;8771;48.048;7.682;2022-08-07T18:31:17;27.00;44.20
17307;DHT22;8771;48.048;7.682;2022-08-07T18:36:36;26.80;44.20
17307;DHT22;8771;48.048;7.682;2022-08-07T18:41:53;26.70;44.20
17307;DHT22;8771;48.048;7.682;2022-08-07T18:47:05;26.60;44.20
17307;DHT22;8771;48.048;7.682;2022-08-07T18:52:35;26.50;44.10
17307;DHT22;8771;48.048;7.682;2022-08-07T18:57:51;26.40;44.20
17307;DHT22;8771;48.048;7.682;2022-08-07T19:03:02;26.30;44.20
17307;DHT22;8771;48.048;7.682;2022-08-07T19:08:11;26.20;44.10
17307;DHT22;8771;48.048;7.682;2022-08-07T19:13:19;26.10;44.10
17307;DHT22;8771;48.048;7.682;2022-08-07T19:18:30;26.00;44.00
17307;DHT22;8771;48.048;7.682;2022-08-07T19:23:42;25.90;44.00
17307;DHT22;8771;48.048;7.682;2022-08-07T19:28:49;25.80;43.90
17307;DHT22;8771;48.048;7.682;2022-08-07T19:33:54;25.80;43.90
17307;DHT22;8771;48.048;7.682;2022-08-07T19:39:00;25.70;43.90
17307;DHT22;8771;48.048;7.682;2022-08-07T19:44:03;25.60;43.90
17307;DHT22;8771;48.048;7.682;2022-08-07T19:49:06;25.60;43.90
17307;DHT22;8771;48.048;7.682;2022-08-07T19:54:11;25.60;43.90
17307;DHT22;8771;48.048;7.682;2022-08-07T19:59:16;25.50;43.80
17307;DHT22;8771;48.048;7.682;2022-08-07T20:04:23;25.50;43.90
17307;DHT22;8771;48.048;7.682;2022-08-07T20:09:29;25.50;43.90
17307;DHT22;8771;48.048;7.682;2022-08-07T20:14:37;25.50;44.00
17307;DHT22;8771;48.048;7.682;2022-08-07T20:19:41;25.40;44.00
17307;DHT22;8771;48.048;7.682;2022-08-07T20:24:47;25.30;44.00
17307;DHT22;8771;48.048;7.682;2022-08-07T20:29:54;25.30;44.00
17307;DHT22;8771;48.048;7.682;2022-08-07T20:34:59;25.30;44.00
17307;DHT22;8771;48.048;7.682;2022-08-07T20:40:04;25.30;44.00
17307;DHT22;8771;48.048;7.682;2022-08-07T20:45:08;25.20;44.10
17307;DHT22;8771;48.048;7.682;2022-08-07T20:50:11;25.10;44.20
17307;DHT22;8771;48.048;7.682;2022-08-07T20:55:15;25.00;44.20
17307;DHT22;8771;48.048;7.682;2022-08-07T21:00:18;24.90;44.40
17307;DHT22;8771;48.048;7.682;2022-08-07T21:05:23;24.80;44.40
17307;DHT22;8771;48.048;7.682;2022-08-07T21:10:30;24.70;44.50
17307;DHT22;8771;48.048;7.682;2022-08-07T21:15:35;24.60;44.60
17307;DHT22;8771;48.048;7.682;2022-08-07T21:20:39;24.40;44.70
17307;DHT22;8771;48.048;7.682;2022-08-07T21:25:52;24.30;44.80
17307;DHT22;8771;48.048;7.682;2022-08-07T21:31:01;24.20;44.90
17307;DHT22;8771;48.048;7.682;2022-08-07T21:36:12;24.00;45.00
17307;DHT22;8771;48.048;7.682;2022-08-07T21:41:25;23.90;45.10
17307;DHT22;8771;48.048;7.682;2022-08-07T21:46:35;23.70;45.20
17307;DHT22;8771;48.048;7.682;2022-08-07T21:51:47;23.50;45.30
17307;DHT22;8771;48.048;7.682;2022-08-07T21:57:07;23.40;45.40
17307;DHT22;8771;48.048;7.682;2022-08-07T22:02:15;23.30;45.60
17307;DHT22;8771;48.048;7.682;2022-08-07T22:07:22;23.00;45.60
17307;DHT22;8771;48.048;7.682;2022-08-07T22:12:29;22.90;45.70
17307;DHT22;8771;48.048;7.682;2022-08-07T22:17:35;22.70;45.90
17307;DHT22;8771;48.048;7.682;2022-08-07T22:22:42;22.60;46.00
17307;DHT22;8771;48.048;7.682;2022-08-07T22:27:50;22.40;46.00
17307;DHT22;8771;48.048;7.682;2022-08-07T22:33:02;22.30;46.10
17307;DHT22;8771;48.048;7.682;2022-08-07T22:38:13;22.20;46.20
17307;DHT22;8771;48.048;7.682;2022-08-07T22:43:20;22.10;46.20
17307;DHT22;8771;48.048;7.682;2022-08-07T22:48:41;22.00;46.20
17307;DHT22;8771;48.048;7.682;2022-08-07T22:53:59;21.90;46.20
17307;DHT22;8771;48.048;7.682;2022-08-07T22:59:27;21.80;46.20
17307;DHT22;8771;48.048;7.682;2022-08-07T23:04:59;21.70;46.30
17307;DHT22;8771;48.048;7.682;2022-08-07T23:10:13;21.60;46.50
17307;DHT22;8771;48.048;7.682;2022-08-07T23:15:24;21.40;46.60
17307;DHT22;8771;48.048;7.682;2022-08-07T23:20:53;21.30;46.70
17307;DHT22;8771;48.048;7.682;2022-08-07T23:26:13;21.20;46.70
17307;DHT22;8771;48.048;7.682;2022-08-07T23:31:24;21.10;46.80
17307;DHT22;8771;48.048;7.682;2022-08-07T23:36:44;21.00;46.80
17307;DHT22;8771;48.048;7.682;2022-08-07T23:42:00;21.00;46.80
17307;DHT22;8771;48.048;7.682;2022-08-07T23:47:17;20.90;46.80
17307;DHT22;8771;48.048;7.682;2022-08-07T23:52:26;20.80;46.90
17307;DHT22;8771;48.048;7.682;2022-08-07T23:57:36;20.70;46.90
